sensor_id;sensor_type;location;lat;lon;timestamp;P1;durP1;ratioP1;P2;durP2;ratioP2
76852;SDS011;65825;52.232;10.566;2023-05-13T00:00:34;7.18;;;5.30;;
76852;SDS011;65825;52.232;10.566;2023-05-13T00:03:00;8.85;;;5.05;;
76852;SDS011;65825;52.232;10.566;2023-05-13T00:05:25;9.30;;;4.85;;
76852;SDS011;65825;52.232;10.566;2023-05-13T00:07:50;10.27;;;5.63;;
76852;SDS011;65825;52.232;10.566;2023-05-13T00:10:16;11.13;;;5.63;;
76852;SDS011;65825;52.232;10.566;2023-05-13T00:12:41;10.10;;;5.57;;
76852;SDS011;65825;52.232;10.566;2023-05-13T00:15:07;9.60;;;5.43;;
76852;SDS011;65825;52.232;10.566;2023-05-13T00:17:33;8.38;;;4.95;;
76852;SDS011;65825;52.232;10.566;2023-05-13T00:19:58;7.33;;;5.10;;
76852;SDS011;65825;52.232;10.566;2023-05-13T00:22:23;7.23;;;5.10;;
76852;SDS011;65825;52.232;10.566;2023-05-13T00:24:48;8.38;;;5.38;;
76852;SDS011;65825;52.232;10.566;2023-05-13T00:27:14;9.60;;;5.33;;
76852;SDS011;65825;52.232;10.566;2023-05-13T00:29:39;8.83;;;6.03;;
76852;SDS011;65825;52.232;10.566;2023-05-13T00:32:04;7.07;;;5.10;;
76852;SDS011;65825;52.232;10.566;2023-05-13T00:34:30;8.88;;;5.38;;
76852;SDS011;65825;52.232;10.566;2023-05-13T00:36:55;8.90;;;6.03;;
76852;SDS011;65825;52.232;10.566;2023-05-13T00:39:20;10.18;;;5.50;;
76852;SDS011;65825;52.232;10.566;2023-05-13T00:41:46;10.70;;;5.15;;
76852;SDS011;65825;52.232;10.566;2023-05-13T00:44:12;9.73;;;5.80;;
76852;SDS011;65825;52.232;10.566;2023-05-13T00:46:37;9.37;;;5.57;;
76852;SDS011;65825;52.232;10.566;2023-05-13T00:49:03;7.30;;;5.20;;
76852;SDS011;65825;52.232;10.566;2023-05-13T00:51:29;8.13;;;5.25;;
76852;SDS011;65825;52.232;10.566;2023-05-13T00:53:56;6.90;;;5.15;;
76852;SDS011;65825;52.232;10.566;2023-05-13T00:56:24;6.65;;;4.85;;
76852;SDS011;65825;52.232;10.566;2023-05-13T00:58:50;7.47;;;5.20;;
76852;SDS011;65825;52.232;10.566;2023-05-13T01:04:13;6.95;;;5.00;;
76852;SDS011;65825;52.232;10.566;2023-05-13T01:12:10;7.72;;;5.10;;
76852;SDS011;65825;52.232;10.566;2023-05-13T01:14:44;10.23;;;5.47;;
76852;SDS011;65825;52.232;10.566;2023-05-13T01:17:21;8.73;;;5.70;;
76852;SDS011;65825;52.232;10.566;2023-05-13T01:19:53;8.70;;;5.85;;
76852;SDS011;65825;52.232;10.566;2023-05-13T01:22:21;10.98;;;6.03;;
76852;SDS011;65825;52.232;10.566;2023-05-13T01:24:46;11.63;;;5.97;;
76852;SDS011;65825;52.232;10.566;2023-05-13T01:27:12;8.27;;;5.15;;
76852;SDS011;65825;52.232;10.566;2023-05-13T01:29:38;8.55;;;5.65;;
76852;SDS011;65825;52.232;10.566;2023-05-13T01:32:05;11.13;;;5.65;;
76852;SDS011;65825;52.232;10.566;2023-05-13T01:34:31;8.63;;;5.53;;
76852;SDS011;65825;52.232;10.566;2023-05-13T01:36:58;8.43;;;5.65;;
76852;SDS011;65825;52.232;10.566;2023-05-13T01:41:50;8.38;;;5.78;;
76852;SDS011;65825;52.232;10.566;2023-05-13T01:44:16;10.77;;;6.40;;
76852;SDS011;65825;52.232;10.566;2023-05-13T01:46:46;7.93;;;5.22;;
76852;SDS011;65825;52.232;10.566;2023-05-13T01:49:11;9.55;;;4.70;;
76852;SDS011;65825;52.232;10.566;2023-05-13T01:51:37;9.47;;;5.60;;
76852;SDS011;65825;52.232;10.566;2023-05-13T01:54:03;8.02;;;4.78;;
76852;SDS011;65825;52.232;10.566;2023-05-13T01:56:28;7.53;;;5.25;;
76852;SDS011;65825;52.232;10.566;2023-05-13T01:58:53;8.37;;;5.37;;
76852;SDS011;65825;52.232;10.566;2023-05-13T02:01:19;12.00;;;5.13;;
76852;SDS011;65825;52.232;10.566;2023-05-13T02:03:44;7.13;;;4.87;;
76852;SDS011;65825;52.232;10.566;2023-05-13T02:06:09;7.83;;;5.30;;
76852;SDS011;65825;52.232;10.566;2023-05-13T02:08:34;11.23;;;5.27;;
76852;SDS011;65825;52.232;10.566;2023-05-13T02:11:00;10.30;;;5.40;;
76852;SDS011;65825;52.232;10.566;2023-05-13T02:13:25;9.48;;;5.25;;
76852;SDS011;65825;52.232;10.566;2023-05-13T02:15:51;9.45;;;5.32;;
76852;SDS011;65825;52.232;10.566;2023-05-13T02:18:17;11.20;;;5.50;;
76852;SDS011;65825;52.232;10.566;2023-05-13T02:20:43;7.95;;;5.03;;
76852;SDS011;65825;52.232;10.566;2023-05-13T02:23:08;8.68;;;5.35;;
76852;SDS011;65825;52.232;10.566;2023-05-13T02:25:33;8.63;;;5.70;;
76852;SDS011;65825;52.232;10.566;2023-05-13T02:27:59;27.00;;;6.45;;
76852;SDS011;65825;52.232;10.566;2023-05-13T02:30:25;8.60;;;5.25;;
76852;SDS011;65825;52.232;10.566;2023-05-13T02:32:51;9.77;;;5.47;;
76852;SDS011;65825;52.232;10.566;2023-05-13T02:35:17;7.93;;;5.40;;
76852;SDS011;65825;52.232;10.566;2023-05-13T02:37:43;9.63;;;5.65;;
76852;SDS011;65825;52.232;10.566;2023-05-13T02:40:08;8.98;;;5.32;;
76852;SDS011;65825;52.232;10.566;2023-05-13T02:42:34;10.15;;;5.80;;
76852;SDS011;65825;52.232;10.566;2023-05-13T02:44:59;9.83;;;5.43;;
76852;SDS011;65825;52.232;10.566;2023-05-13T02:47:24;11.23;;;5.57;;
76852;SDS011;65825;52.232;10.566;2023-05-13T02:49:49;8.67;;;5.77;;
76852;SDS011;65825;52.232;10.566;2023-05-13T02:52:15;7.67;;;5.13;;
76852;SDS011;65825;52.232;10.566;2023-05-13T02:54:40;11.07;;;5.78;;
76852;SDS011;65825;52.232;10.566;2023-05-13T02:57:05;7.80;;;5.10;;
76852;SDS011;65825;52.232;10.566;2023-05-13T02:59:30;7.70;;;4.85;;
76852;SDS011;65825;52.232;10.566;2023-05-13T03:01:56;6.85;;;5.03;;
76852;SDS011;65825;52.232;10.566;2023-05-13T03:04:21;11.13;;;5.95;;
76852;SDS011;65825;52.232;10.566;2023-05-13T03:06:46;11.20;;;5.50;;
76852;SDS011;65825;52.232;10.566;2023-05-13T03:09:12;7.93;;;5.28;;
76852;SDS011;65825;52.232;10.566;2023-05-13T03:11:37;9.50;;;5.90;;
76852;SDS011;65825;52.232;10.566;2023-05-13T03:14:02;7.47;;;5.17;;
76852;SDS011;65825;52.232;10.566;2023-05-13T03:16:27;11.67;;;5.53;;
76852;SDS011;65825;52.232;10.566;2023-05-13T03:18:53;9.37;;;5.80;;
76852;SDS011;65825;52.232;10.566;2023-05-13T03:21:18;10.27;;;5.17;;
76852;SDS011;65825;52.232;10.566;2023-05-13T03:23:43;9.33;;;5.83;;
76852;SDS011;65825;52.232;10.566;2023-05-13T03:26:10;10.40;;;5.82;;
76852;SDS011;65825;52.232;10.566;2023-05-13T03:28:36;9.50;;;6.30;;
76852;SDS011;65825;52.232;10.566;2023-05-13T03:31:01;8.10;;;5.80;;
76852;SDS011;65825;52.232;10.566;2023-05-13T03:33:27;12.07;;;5.60;;
76852;SDS011;65825;52.232;10.566;2023-05-13T03:38:18;9.13;;;5.77;;
76852;SDS011;65825;52.232;10.566;2023-05-13T03:40:44;9.53;;;5.33;;
76852;SDS011;65825;52.232;10.566;2023-05-13T03:43:09;11.73;;;5.45;;
76852;SDS011;65825;52.232;10.566;2023-05-13T03:45:34;9.35;;;5.65;;
76852;SDS011;65825;52.232;10.566;2023-05-13T03:48:00;8.77;;;5.80;;
76852;SDS011;65825;52.232;10.566;2023-05-13T03:50:25;9.45;;;5.63;;
76852;SDS011;65825;52.232;10.566;2023-05-13T03:52:51;9.35;;;5.82;;
76852;SDS011;65825;52.232;10.566;2023-05-13T03:55:16;8.33;;;5.77;;
76852;SDS011;65825;52.232;10.566;2023-05-13T03:57:43;10.90;;;6.20;;
76852;SDS011;65825;52.232;10.566;2023-05-13T04:00:11;12.20;;;5.72;;
76852;SDS011;65825;52.232;10.566;2023-05-13T04:02:37;10.75;;;6.68;;
76852;SDS011;65825;52.232;10.566;2023-05-13T04:05:02;10.17;;;5.73;;
76852;SDS011;65825;52.232;10.566;2023-05-13T04:07:29;10.43;;;5.45;;
76852;SDS011;65825;52.232;10.566;2023-05-13T04:09:55;16.53;;;6.13;;
76852;SDS011;65825;52.232;10.566;2023-05-13T04:12:20;8.47;;;5.77;;
76852;SDS011;65825;52.232;10.566;2023-05-13T04:14:45;14.33;;;5.53;;
76852;SDS011;65825;52.232;10.566;2023-05-13T04:17:10;9.57;;;6.03;;
76852;SDS011;65825;52.232;10.566;2023-05-13T04:19:36;10.70;;;6.37;;
76852;SDS011;65825;52.232;10.566;2023-05-13T04:22:01;9.10;;;5.53;;
76852;SDS011;65825;52.232;10.566;2023-05-13T04:24:26;10.33;;;6.13;;
76852;SDS011;65825;52.232;10.566;2023-05-13T04:26:51;10.73;;;6.33;;
76852;SDS011;65825;52.232;10.566;2023-05-13T04:29:17;12.70;;;5.70;;
76852;SDS011;65825;52.232;10.566;2023-05-13T04:31:43;8.27;;;5.70;;
76852;SDS011;65825;52.232;10.566;2023-05-13T04:34:08;10.70;;;6.63;;
76852;SDS011;65825;52.232;10.566;2023-05-13T04:36:33;10.43;;;5.97;;
76852;SDS011;65825;52.232;10.566;2023-05-13T04:38:58;8.03;;;5.53;;
76852;SDS011;65825;52.232;10.566;2023-05-13T04:41:24;11.07;;;6.25;;
76852;SDS011;65825;52.232;10.566;2023-05-13T04:43:49;10.35;;;5.93;;
76852;SDS011;65825;52.232;10.566;2023-05-13T04:46:15;9.38;;;5.82;;
76852;SDS011;65825;52.232;10.566;2023-05-13T04:48:40;10.25;;;5.47;;
76852;SDS011;65825;52.232;10.566;2023-05-13T04:51:05;11.03;;;6.30;;
76852;SDS011;65825;52.232;10.566;2023-05-13T04:53:30;9.23;;;5.77;;
76852;SDS011;65825;52.232;10.566;2023-05-13T04:55:56;11.37;;;6.23;;
76852;SDS011;65825;52.232;10.566;2023-05-13T04:58:24;10.95;;;5.95;;
76852;SDS011;65825;52.232;10.566;2023-05-13T05:00:50;11.02;;;5.70;;
76852;SDS011;65825;52.232;10.566;2023-05-13T05:03:16;14.57;;;5.97;;
76852;SDS011;65825;52.232;10.566;2023-05-13T05:05:41;7.83;;;5.77;;
76852;SDS011;65825;52.232;10.566;2023-05-13T05:08:06;11.00;;;5.90;;
76852;SDS011;65825;52.232;10.566;2023-05-13T05:10:31;8.77;;;5.63;;
76852;SDS011;65825;52.232;10.566;2023-05-13T05:12:57;12.23;;;5.75;;
76852;SDS011;65825;52.232;10.566;2023-05-13T05:15:22;10.83;;;5.60;;
76852;SDS011;65825;52.232;10.566;2023-05-13T05:17:48;9.70;;;5.53;;
76852;SDS011;65825;52.232;10.566;2023-05-13T05:20:13;7.73;;;5.27;;
76852;SDS011;65825;52.232;10.566;2023-05-13T05:22:38;8.70;;;5.47;;
76852;SDS011;65825;52.232;10.566;2023-05-13T05:25:05;9.65;;;5.40;;
76852;SDS011;65825;52.232;10.566;2023-05-13T05:27:31;7.85;;;5.22;;
76852;SDS011;65825;52.232;10.566;2023-05-13T05:29:56;14.97;;;5.87;;
76852;SDS011;65825;52.232;10.566;2023-05-13T05:32:21;8.17;;;5.27;;
76852;SDS011;65825;52.232;10.566;2023-05-13T05:34:47;7.82;;;5.40;;
76852;SDS011;65825;52.232;10.566;2023-05-13T05:37:12;8.63;;;5.13;;
76852;SDS011;65825;52.232;10.566;2023-05-13T05:39:37;7.50;;;5.03;;
76852;SDS011;65825;52.232;10.566;2023-05-13T05:42:05;9.07;;;5.30;;
76852;SDS011;65825;52.232;10.566;2023-05-13T05:44:31;10.10;;;4.95;;
76852;SDS011;65825;52.232;10.566;2023-05-13T05:46:56;9.07;;;5.78;;
76852;SDS011;65825;52.232;10.566;2023-05-13T05:49:21;10.53;;;5.10;;
76852;SDS011;65825;52.232;10.566;2023-05-13T05:51:47;10.60;;;5.33;;
76852;SDS011;65825;52.232;10.566;2023-05-13T05:54:12;8.17;;;5.70;;
76852;SDS011;65825;52.232;10.566;2023-05-13T05:56:37;11.10;;;5.67;;
76852;SDS011;65825;52.232;10.566;2023-05-13T05:59:02;9.10;;;5.13;;
76852;SDS011;65825;52.232;10.566;2023-05-13T06:01:28;15.07;;;5.60;;
76852;SDS011;65825;52.232;10.566;2023-05-13T06:03:57;9.93;;;5.40;;
76852;SDS011;65825;52.232;10.566;2023-05-13T06:06:23;10.90;;;5.22;;
76852;SDS011;65825;52.232;10.566;2023-05-13T06:08:48;11.73;;;5.57;;
76852;SDS011;65825;52.232;10.566;2023-05-13T06:11:13;9.10;;;5.60;;
76852;SDS011;65825;52.232;10.566;2023-05-13T06:13:38;7.95;;;5.25;;
76852;SDS011;65825;52.232;10.566;2023-05-13T06:16:04;9.47;;;5.33;;
76852;SDS011;65825;52.232;10.566;2023-05-13T06:18:29;9.20;;;5.57;;
76852;SDS011;65825;52.232;10.566;2023-05-13T06:20:54;10.27;;;5.13;;
76852;SDS011;65825;52.232;10.566;2023-05-13T06:23:20;9.17;;;5.43;;
76852;SDS011;65825;52.232;10.566;2023-05-13T06:25:45;11.50;;;5.33;;
76852;SDS011;65825;52.232;10.566;2023-05-13T06:28:11;8.57;;;5.20;;
76852;SDS011;65825;52.232;10.566;2023-05-13T06:30:36;10.45;;;6.00;;
76852;SDS011;65825;52.232;10.566;2023-05-13T06:33:02;9.95;;;5.63;;
76852;SDS011;65825;52.232;10.566;2023-05-13T06:35:28;8.70;;;5.40;;
76852;SDS011;65825;52.232;10.566;2023-05-13T06:37:53;9.90;;;5.53;;
76852;SDS011;65825;52.232;10.566;2023-05-13T06:40:18;8.83;;;5.50;;
76852;SDS011;65825;52.232;10.566;2023-05-13T06:42:44;10.43;;;5.73;;
76852;SDS011;65825;52.232;10.566;2023-05-13T06:45:09;8.63;;;5.38;;
76852;SDS011;65825;52.232;10.566;2023-05-13T06:47:34;11.70;;;5.45;;
76852;SDS011;65825;52.232;10.566;2023-05-13T06:50:01;9.65;;;5.53;;
76852;SDS011;65825;52.232;10.566;2023-05-13T06:52:27;13.00;;;6.22;;
76852;SDS011;65825;52.232;10.566;2023-05-13T06:54:52;8.07;;;5.23;;
76852;SDS011;65825;52.232;10.566;2023-05-13T06:57:17;12.67;;;5.27;;
76852;SDS011;65825;52.232;10.566;2023-05-13T06:59:43;8.40;;;5.78;;
76852;SDS011;65825;52.232;10.566;2023-05-13T07:02:09;8.82;;;5.10;;
76852;SDS011;65825;52.232;10.566;2023-05-13T07:04:35;10.65;;;5.30;;
76852;SDS011;65825;52.232;10.566;2023-05-13T07:07:00;11.40;;;5.70;;
76852;SDS011;65825;52.232;10.566;2023-05-13T07:09:26;7.33;;;5.47;;
76852;SDS011;65825;52.232;10.566;2023-05-13T07:11:51;13.23;;;5.68;;
76852;SDS011;65825;52.232;10.566;2023-05-13T07:14:18;15.13;;;5.93;;
76852;SDS011;65825;52.232;10.566;2023-05-13T07:16:43;9.80;;;5.60;;
76852;SDS011;65825;52.232;10.566;2023-05-13T07:19:09;13.07;;;5.93;;
76852;SDS011;65825;52.232;10.566;2023-05-13T07:21:34;7.70;;;5.20;;
76852;SDS011;65825;52.232;10.566;2023-05-13T07:23:59;12.63;;;5.83;;
76852;SDS011;65825;52.232;10.566;2023-05-13T07:26:26;9.27;;;5.38;;
76852;SDS011;65825;52.232;10.566;2023-05-13T07:28:51;10.13;;;5.28;;
76852;SDS011;65825;52.232;10.566;2023-05-13T07:31:16;9.27;;;5.20;;
76852;SDS011;65825;52.232;10.566;2023-05-13T07:33:42;9.80;;;5.70;;
76852;SDS011;65825;52.232;10.566;2023-05-13T07:36:07;9.33;;;5.30;;
76852;SDS011;65825;52.232;10.566;2023-05-13T07:38:32;13.03;;;5.63;;
76852;SDS011;65825;52.232;10.566;2023-05-13T07:40:58;12.57;;;5.43;;
76852;SDS011;65825;52.232;10.566;2023-05-13T07:43:23;11.00;;;5.57;;
76852;SDS011;65825;52.232;10.566;2023-05-13T07:45:49;10.90;;;5.20;;
76852;SDS011;65825;52.232;10.566;2023-05-13T07:48:15;9.07;;;5.22;;
76852;SDS011;65825;52.232;10.566;2023-05-13T07:50:41;10.55;;;5.90;;
76852;SDS011;65825;52.232;10.566;2023-05-13T07:53:07;10.50;;;5.22;;
76852;SDS011;65825;52.232;10.566;2023-05-13T07:55:32;9.93;;;6.00;;
76852;SDS011;65825;52.232;10.566;2023-05-13T07:57:58;8.65;;;5.38;;
76852;SDS011;65825;52.232;10.566;2023-05-13T08:00:23;8.82;;;5.55;;
76852;SDS011;65825;52.232;10.566;2023-05-13T08:05:14;11.17;;;5.80;;
76852;SDS011;65825;52.232;10.566;2023-05-13T08:10:04;10.13;;;6.57;;
76852;SDS011;65825;52.232;10.566;2023-05-13T08:14:55;8.03;;;5.60;;
76852;SDS011;65825;52.232;10.566;2023-05-13T08:19:46;10.52;;;6.03;;
76852;SDS011;65825;52.232;10.566;2023-05-13T08:22:11;9.52;;;6.40;;
76852;SDS011;65825;52.232;10.566;2023-05-13T08:24:37;9.17;;;5.63;;
76852;SDS011;65825;52.232;10.566;2023-05-13T08:27:04;12.40;;;6.32;;
76852;SDS011;65825;52.232;10.566;2023-05-13T08:29:30;15.65;;;5.93;;
76852;SDS011;65825;52.232;10.566;2023-05-13T08:31:55;9.98;;;6.22;;
76852;SDS011;65825;52.232;10.566;2023-05-13T08:34:21;11.55;;;6.68;;
76852;SDS011;65825;52.232;10.566;2023-05-13T08:36:46;14.38;;;6.35;;
76852;SDS011;65825;52.232;10.566;2023-05-13T08:39:12;8.23;;;5.97;;
76852;SDS011;65825;52.232;10.566;2023-05-13T08:41:37;8.50;;;6.15;;
76852;SDS011;65825;52.232;10.566;2023-05-13T08:44:04;12.93;;;6.28;;
76852;SDS011;65825;52.232;10.566;2023-05-13T08:46:31;10.25;;;5.78;;
76852;SDS011;65825;52.232;10.566;2023-05-13T08:49:00;11.45;;;6.07;;
76852;SDS011;65825;52.232;10.566;2023-05-13T08:51:26;13.32;;;6.03;;
76852;SDS011;65825;52.232;10.566;2023-05-13T08:53:51;14.10;;;6.50;;
76852;SDS011;65825;52.232;10.566;2023-05-13T08:56:18;11.63;;;6.80;;
76852;SDS011;65825;52.232;10.566;2023-05-13T08:58:46;12.00;;;6.47;;
76852;SDS011;65825;52.232;10.566;2023-05-13T09:01:11;17.48;;;6.47;;
76852;SDS011;65825;52.232;10.566;2023-05-13T09:03:36;8.43;;;5.97;;
76852;SDS011;65825;52.232;10.566;2023-05-13T09:06:10;9.40;;;6.28;;
76852;SDS011;65825;52.232;10.566;2023-05-13T09:08:35;10.13;;;5.87;;
76852;SDS011;65825;52.232;10.566;2023-05-13T09:11:00;12.03;;;5.67;;
76852;SDS011;65825;52.232;10.566;2023-05-13T09:13:26;12.18;;;5.80;;
76852;SDS011;65825;52.232;10.566;2023-05-13T09:15:51;13.00;;;5.40;;
76852;SDS011;65825;52.232;10.566;2023-05-13T09:18:17;10.82;;;5.50;;
76852;SDS011;65825;52.232;10.566;2023-05-13T09:20:42;9.68;;;5.55;;
76852;SDS011;65825;52.232;10.566;2023-05-13T09:23:08;12.10;;;5.78;;
76852;SDS011;65825;52.232;10.566;2023-05-13T09:25:37;13.13;;;5.53;;
76852;SDS011;65825;52.232;10.566;2023-05-13T09:28:04;9.65;;;4.90;;
76852;SDS011;65825;52.232;10.566;2023-05-13T09:30:35;9.45;;;5.10;;
76852;SDS011;65825;52.232;10.566;2023-05-13T09:33:06;10.13;;;5.47;;
76852;SDS011;65825;52.232;10.566;2023-05-13T09:35:35;11.13;;;5.10;;
76852;SDS011;65825;52.232;10.566;2023-05-13T09:38:24;15.75;;;5.38;;
76852;SDS011;65825;52.232;10.566;2023-05-13T09:40:51;8.10;;;4.30;;
76852;SDS011;65825;52.232;10.566;2023-05-13T09:43:21;9.05;;;4.78;;
76852;SDS011;65825;52.232;10.566;2023-05-13T09:45:51;9.80;;;4.72;;
76852;SDS011;65825;52.232;10.566;2023-05-13T09:48:20;9.05;;;4.75;;
76852;SDS011;65825;52.232;10.566;2023-05-13T09:50:47;9.18;;;4.90;;
76852;SDS011;65825;52.232;10.566;2023-05-13T09:53:14;10.55;;;5.00;;
76852;SDS011;65825;52.232;10.566;2023-05-13T09:55:45;7.90;;;4.85;;
76852;SDS011;65825;52.232;10.566;2023-05-13T09:58:11;11.68;;;4.93;;
76852;SDS011;65825;52.232;10.566;2023-05-13T10:00:36;17.00;;;5.18;;
76852;SDS011;65825;52.232;10.566;2023-05-13T10:03:06;8.70;;;4.72;;
76852;SDS011;65825;52.232;10.566;2023-05-13T10:05:32;9.35;;;5.00;;
76852;SDS011;65825;52.232;10.566;2023-05-13T10:08:01;8.68;;;4.78;;
76852;SDS011;65825;52.232;10.566;2023-05-13T10:10:28;9.38;;;4.50;;
76852;SDS011;65825;52.232;10.566;2023-05-13T10:12:54;8.43;;;4.80;;
76852;SDS011;65825;52.232;10.566;2023-05-13T10:15:23;7.93;;;4.85;;
76852;SDS011;65825;52.232;10.566;2023-05-13T10:17:49;9.32;;;5.20;;
76852;SDS011;65825;52.232;10.566;2023-05-13T10:20:14;7.53;;;5.05;;
76852;SDS011;65825;52.232;10.566;2023-05-13T10:22:40;12.85;;;5.07;;
76852;SDS011;65825;52.232;10.566;2023-05-13T10:25:06;9.80;;;5.18;;
76852;SDS011;65825;52.232;10.566;2023-05-13T10:27:32;8.15;;;5.05;;
76852;SDS011;65825;52.232;10.566;2023-05-13T10:29:59;8.63;;;5.18;;
76852;SDS011;65825;52.232;10.566;2023-05-13T10:32:26;10.82;;;5.03;;
76852;SDS011;65825;52.232;10.566;2023-05-13T10:34:54;10.40;;;4.80;;
76852;SDS011;65825;52.232;10.566;2023-05-13T10:37:29;9.15;;;5.05;;
76852;SDS011;65825;52.232;10.566;2023-05-13T10:40:12;7.00;;;4.63;;
76852;SDS011;65825;52.232;10.566;2023-05-13T10:45:59;9.32;;;4.97;;
76852;SDS011;65825;52.232;10.566;2023-05-13T10:48:25;10.45;;;4.60;;
76852;SDS011;65825;52.232;10.566;2023-05-13T10:51:02;7.80;;;4.40;;
76852;SDS011;65825;52.232;10.566;2023-05-13T10:53:34;11.82;;;4.53;;
76852;SDS011;65825;52.232;10.566;2023-05-13T10:56:01;10.75;;;4.80;;
76852;SDS011;65825;52.232;10.566;2023-05-13T10:58:32;10.73;;;4.45;;
76852;SDS011;65825;52.232;10.566;2023-05-13T11:01:18;7.97;;;4.88;;
76852;SDS011;65825;52.232;10.566;2023-05-13T11:03:54;10.43;;;4.28;;
76852;SDS011;65825;52.232;10.566;2023-05-13T11:06:37;6.20;;;3.97;;
76852;SDS011;65825;52.232;10.566;2023-05-13T11:09:04;6.15;;;4.00;;
76852;SDS011;65825;52.232;10.566;2023-05-13T11:11:32;9.90;;;4.15;;
76852;SDS011;65825;52.232;10.566;2023-05-13T11:16:23;8.30;;;4.20;;
76852;SDS011;65825;52.232;10.566;2023-05-13T11:18:49;10.73;;;4.00;;
76852;SDS011;65825;52.232;10.566;2023-05-13T11:21:16;7.07;;;3.78;;
76852;SDS011;65825;52.232;10.566;2023-05-13T11:23:49;6.97;;;3.97;;
76852;SDS011;65825;52.232;10.566;2023-05-13T11:26:20;5.78;;;3.60;;
76852;SDS011;65825;52.232;10.566;2023-05-13T11:28:52;6.97;;;3.67;;
76852;SDS011;65825;52.232;10.566;2023-05-13T11:31:27;5.97;;;3.95;;
76852;SDS011;65825;52.232;10.566;2023-05-13T11:34:16;9.60;;;4.00;;
76852;SDS011;65825;52.232;10.566;2023-05-13T11:36:48;8.07;;;3.47;;
76852;SDS011;65825;52.232;10.566;2023-05-13T11:39:22;9.05;;;3.58;;
76852;SDS011;65825;52.232;10.566;2023-05-13T11:41:50;10.38;;;3.83;;
76852;SDS011;65825;52.232;10.566;2023-05-13T11:44:18;6.28;;;3.85;;
76852;SDS011;65825;52.232;10.566;2023-05-13T11:51:58;7.25;;;3.53;;
76852;SDS011;65825;52.232;10.566;2023-05-13T11:54:24;7.50;;;3.83;;
76852;SDS011;65825;52.232;10.566;2023-05-13T11:56:50;5.88;;;3.90;;
76852;SDS011;65825;52.232;10.566;2023-05-13T11:59:15;8.02;;;3.53;;
76852;SDS011;65825;52.232;10.566;2023-05-13T12:01:40;6.17;;;3.80;;
76852;SDS011;65825;52.232;10.566;2023-05-13T12:04:05;8.52;;;3.70;;
76852;SDS011;65825;52.232;10.566;2023-05-13T12:06:33;6.93;;;3.58;;
76852;SDS011;65825;52.232;10.566;2023-05-13T12:09:05;7.15;;;3.70;;
76852;SDS011;65825;52.232;10.566;2023-05-13T12:11:31;5.07;;;3.40;;
76852;SDS011;65825;52.232;10.566;2023-05-13T12:13:57;9.45;;;3.80;;
76852;SDS011;65825;52.232;10.566;2023-05-13T12:16:23;8.88;;;3.95;;
76852;SDS011;65825;52.232;10.566;2023-05-13T12:19:07;5.03;;;3.65;;
76852;SDS011;65825;52.232;10.566;2023-05-13T12:23:58;8.13;;;3.83;;
76852;SDS011;65825;52.232;10.566;2023-05-13T12:26:24;7.03;;;3.85;;
76852;SDS011;65825;52.232;10.566;2023-05-13T12:28:59;6.03;;;4.00;;
76852;SDS011;65825;52.232;10.566;2023-05-13T12:31:24;7.20;;;3.67;;
76852;SDS011;65825;52.232;10.566;2023-05-13T12:33:50;8.48;;;4.10;;
76852;SDS011;65825;52.232;10.566;2023-05-13T12:36:23;7.75;;;3.53;;
76852;SDS011;65825;52.232;10.566;2023-05-13T12:38:58;6.10;;;3.60;;
76852;SDS011;65825;52.232;10.566;2023-05-13T12:41:31;6.38;;;3.22;;
76852;SDS011;65825;52.232;10.566;2023-05-13T12:43:59;5.30;;;3.45;;
76852;SDS011;65825;52.232;10.566;2023-05-13T12:46:26;5.72;;;3.40;;
76852;SDS011;65825;52.232;10.566;2023-05-13T12:48:55;5.93;;;3.40;;
76852;SDS011;65825;52.232;10.566;2023-05-13T12:51:22;8.65;;;3.70;;
76852;SDS011;65825;52.232;10.566;2023-05-13T12:53:48;6.78;;;3.38;;
76852;SDS011;65825;52.232;10.566;2023-05-13T12:56:13;5.10;;;3.10;;
76852;SDS011;65825;52.232;10.566;2023-05-13T12:58:38;7.47;;;3.10;;
76852;SDS011;65825;52.232;10.566;2023-05-13T13:01:04;9.87;;;3.20;;
76852;SDS011;65825;52.232;10.566;2023-05-13T13:03:29;8.35;;;3.30;;
76852;SDS011;65825;52.232;10.566;2023-05-13T13:05:55;8.43;;;3.30;;
76852;SDS011;65825;52.232;10.566;2023-05-13T13:08:21;5.10;;;2.85;;
76852;SDS011;65825;52.232;10.566;2023-05-13T13:10:47;6.28;;;2.97;;
76852;SDS011;65825;52.232;10.566;2023-05-13T13:13:12;8.07;;;3.03;;
76852;SDS011;65825;52.232;10.566;2023-05-13T13:15:37;6.30;;;2.83;;
76852;SDS011;65825;52.232;10.566;2023-05-13T13:18:03;6.25;;;2.78;;
76852;SDS011;65825;52.232;10.566;2023-05-13T13:20:28;8.93;;;2.67;;
76852;SDS011;65825;52.232;10.566;2023-05-13T13:22:53;7.40;;;2.92;;
76852;SDS011;65825;52.232;10.566;2023-05-13T13:25:19;5.97;;;3.05;;
76852;SDS011;65825;52.232;10.566;2023-05-13T13:27:44;5.18;;;3.08;;
76852;SDS011;65825;52.232;10.566;2023-05-13T13:30:09;5.70;;;2.67;;
76852;SDS011;65825;52.232;10.566;2023-05-13T13:32:35;6.13;;;2.90;;
76852;SDS011;65825;52.232;10.566;2023-05-13T13:35:00;6.50;;;2.90;;
76852;SDS011;65825;52.232;10.566;2023-05-13T13:37:27;12.98;;;3.03;;
76852;SDS011;65825;52.232;10.566;2023-05-13T13:39:52;5.05;;;2.85;;
76852;SDS011;65825;52.232;10.566;2023-05-13T13:42:17;7.38;;;2.83;;
76852;SDS011;65825;52.232;10.566;2023-05-13T13:44:43;4.67;;;2.50;;
76852;SDS011;65825;52.232;10.566;2023-05-13T13:47:08;9.47;;;3.10;;
76852;SDS011;65825;52.232;10.566;2023-05-13T13:49:33;4.80;;;2.90;;
76852;SDS011;65825;52.232;10.566;2023-05-13T13:51:59;6.07;;;3.00;;
76852;SDS011;65825;52.232;10.566;2023-05-13T13:54:24;4.60;;;2.60;;
76852;SDS011;65825;52.232;10.566;2023-05-13T13:56:49;7.43;;;2.90;;
76852;SDS011;65825;52.232;10.566;2023-05-13T13:59:14;5.28;;;2.75;;
76852;SDS011;65825;52.232;10.566;2023-05-13T14:01:42;6.10;;;2.92;;
76852;SDS011;65825;52.232;10.566;2023-05-13T14:04:12;5.45;;;2.88;;
76852;SDS011;65825;52.232;10.566;2023-05-13T14:06:40;4.75;;;3.10;;
76852;SDS011;65825;52.232;10.566;2023-05-13T14:09:06;6.47;;;3.15;;
76852;SDS011;65825;52.232;10.566;2023-05-13T14:11:32;4.63;;;3.00;;
76852;SDS011;65825;52.232;10.566;2023-05-13T14:13:57;5.57;;;2.88;;
76852;SDS011;65825;52.232;10.566;2023-05-13T14:16:22;8.47;;;3.57;;
76852;SDS011;65825;52.232;10.566;2023-05-13T14:18:48;5.43;;;2.75;;
76852;SDS011;65825;52.232;10.566;2023-05-13T14:21:13;5.33;;;3.17;;
76852;SDS011;65825;52.232;10.566;2023-05-13T14:23:38;7.68;;;3.28;;
76852;SDS011;65825;52.232;10.566;2023-05-13T14:26:05;7.07;;;3.30;;
76852;SDS011;65825;52.232;10.566;2023-05-13T14:28:32;7.15;;;2.92;;
76852;SDS011;65825;52.232;10.566;2023-05-13T14:30:57;8.50;;;3.45;;
76852;SDS011;65825;52.232;10.566;2023-05-13T14:33:23;10.50;;;4.17;;
76852;SDS011;65825;52.232;10.566;2023-05-13T14:35:48;8.17;;;3.20;;
76852;SDS011;65825;52.232;10.566;2023-05-13T14:38:13;6.80;;;3.20;;
76852;SDS011;65825;52.232;10.566;2023-05-13T14:40:38;13.53;;;4.13;;
76852;SDS011;65825;52.232;10.566;2023-05-13T14:43:04;7.93;;;3.60;;
76852;SDS011;65825;52.232;10.566;2023-05-13T14:45:29;5.20;;;3.22;;
76852;SDS011;65825;52.232;10.566;2023-05-13T14:47:55;7.93;;;3.40;;
76852;SDS011;65825;52.232;10.566;2023-05-13T14:50:20;4.63;;;3.00;;
76852;SDS011;65825;52.232;10.566;2023-05-13T14:52:45;5.73;;;3.27;;
76852;SDS011;65825;52.232;10.566;2023-05-13T14:55:11;5.47;;;3.10;;
76852;SDS011;65825;52.232;10.566;2023-05-13T14:57:36;6.20;;;3.00;;
76852;SDS011;65825;52.232;10.566;2023-05-13T15:00:02;5.82;;;3.10;;
76852;SDS011;65825;52.232;10.566;2023-05-13T15:02:28;5.10;;;3.15;;